Time;durP1;ratioP1;P1;durP2;ratioP2;P2;SDS_P1;SDS_P2;PMS_P1;PMS_P2;Temp;Humidity;BMP_temperature;BMP_pressure;BME280_temperature;BME280_humidity;BME280_pressure;Samples;Min_cycle;Max_cycle;Signal;HPM_P1;HPM_P2
2022/07/25 00:00:29;;;;;;;;;;;;;;;20.88;73.26;99440.75;4992346;28;819;-72
2022/07/25 00:02:56;;;;;;;;;;;;;;;20.75;73.72;99443.06;4992273;28;1918;-71
2022/07/25 00:05:23;;;;;;;;;;;;;;;20.60;74.46;99431.78;4992567;28;823;-71
2022/07/25 00:07:49;;;;;;;;;;;;;;;20.47;75.03;99431.25;4992537;28;913;-70
2022/07/25 00:10:16;;;;;;;;;;;;;;;20.36;75.63;99443.03;4992217;28;876;-69
2022/07/25 00:12:43;;;;;;;;;;;;;;;20.31;76.02;99446.47;4992238;28;796;-69
2022/07/25 00:15:10;;;;;;;;;;;;;;;20.33;75.83;99455.19;4992183;28;866;-69
2022/07/25 00:17:37;;;;;;;;;;;;;;;20.31;76.16;99452.09;4992149;28;867;-69
2022/07/25 00:20:03;;;;;;;;;;;;;;;20.34;76.23;99454.72;4992031;28;866;-71
2022/07/25 00:22:30;;;;;;;;;;;;;;;20.45;75.96;99451.38;4992057;28;1894;-71
2022/07/25 00:24:56;;;;;;;;;;;;;;;20.54;75.28;99461.75;4992110;28;815;-70
2022/07/25 00:27:23;;;;;;;;;;;;;;;20.64;74.64;99470.91;4992124;28;814;-69
2022/07/25 00:29:49;;;;;;;;;;;;;;;20.79;73.13;99477.34;4992052;28;863;-69
2022/07/25 00:32:16;;;;;;;;;;;;;;;21.03;71.47;99490.56;4991988;28;889;-70
2022/07/25 00:34:42;;;;;;;;;;;;;;;21.21;69.77;99498.81;4992053;28;875;-70
2022/07/25 00:37:09;;;;;;;;;;;;;;;21.34;69.16;99506.97;4992044;28;822;-69
2022/07/25 00:39:35;;;;;;;;;;;;;;;21.36;69.19;99499.59;4991941;28;857;-70
2022/07/25 00:42:03;;;;;;;;;;;;;;;21.39;71.84;99498.63;4992123;28;890;-69
2022/07/25 00:44:30;;;;;;;;;;;;;;;21.45;75.31;99517.66;4991907;28;1951;-71
2022/07/25 00:46:59;;;;;;;;;;;;;;;21.43;78.23;99509.72;4991827;28;881;-69
2022/07/25 01:02:14;;;;;;;;;;;;;;;21.23;89.97;99515.19;4976221;28;1914;-69
2022/07/25 01:04:41;;;;;;;;;;;;;;;21.18;90.52;99508.19;4976529;28;788;-69
2022/07/25 01:07:08;;;;;;;;;;;;;;;21.21;90.23;99510.06;4976343;28;815;-69
2022/07/25 01:09:35;;;;;;;;;;;;;;;21.20;89.49;99491.63;4976675;28;788;-69
2022/07/25 01:12:02;;;;;;;;;;;;;;;21.18;87.86;99505.38;4958668;28;1177;-68
2022/07/25 01:14:29;;;;;;;;;;;;;;;21.13;86.44;99504.03;4976222;28;831;-69
2022/07/25 01:16:55;;;;;;;;;;;;;;;21.05;85.65;99494.44;4975831;28;871;-69
2022/07/25 01:19:23;;;;;;;;;;;;;;;20.94;84.61;99485.78;4975701;28;846;-69
2022/07/25 01:34:00;;;;;;;;;;;;;;;20.85;78.09;99457.78;4975924;28;870;-72
2022/07/25 01:36:27;;;;;;;;;;;;;;;20.84;77.38;99465.44;4975529;28;854;-69
2022/07/25 01:38:54;;;;;;;;;;;;;;;20.84;76.58;99459.81;4975404;28;843;-69
2022/07/25 01:41:20;;;;;;;;;;;;;;;20.83;76.17;99455.47;4975422;28;862;-68
2022/07/25 01:43:56;;;;;;;;;;;;;;;20.85;74.88;99449.38;4975290;28;1886;-70
2022/07/25 01:58:35;;;;;;;;;;;;;;;21.25;70.78;99411.50;4975343;28;844;-71
2022/07/25 02:01:04;;;;;;;;;;;;;;;21.24;70.58;99405.09;4985669;28;1410;-71
2022/07/25 02:03:36;;;;;;;;;;;;;;;21.31;70.74;99413.13;4977513;28;1914;-73
2022/07/25 02:06:12;;;;;;;;;;;;;;;21.34;70.53;99406.53;4994387;28;839;-69
2022/07/25 02:08:43;;;;;;;;;;;;;;;21.41;70.64;99406.16;4976777;28;1249;-71
2022/07/25 02:11:11;;;;;;;;;;;;;;;21.41;70.82;99392.13;4994272;28;894;-70
2022/07/25 02:16:51;;;;;;;;;;;;;;;21.53;70.98;99379.00;4994281;28;1339;-73
2022/07/25 02:19:17;;;;;;;;;;;;;;;21.55;70.97;99382.13;4994230;28;783;-70
2022/07/25 02:21:43;;;;;;;;;;;;;;;21.57;71.14;99373.16;4994172;28;800;-71
2022/07/25 02:24:12;;;;;;;;;;;;;;;21.59;71.04;99379.06;4994169;28;1890;-71
2022/07/25 02:38:50;;;;;;;;;;;;;;;21.67;70.87;99368.22;4994050;28;640;-71
2022/07/25 02:41:21;;;;;;;;;;;;;;;21.67;71.28;99354.91;4994353;28;752;-70
2022/07/25 02:55:59;;;;;;;;;;;;;;;22.03;68.91;99288.13;4993853;28;705;-69
2022/07/25 02:58:27;;;;;;;;;;;;;;;22.18;68.45;99279.56;4993579;28;808;-70
2022/07/25 03:00:53;;;;;;;;;;;;;;;22.25;67.61;99264.31;4993303;28;1300;-69
2022/07/25 03:03:20;;;;;;;;;;;;;;;22.38;66.89;99257.06;4993960;28;1973;-69
2022/07/25 03:05:47;;;;;;;;;;;;;;;22.53;65.18;99251.31;4993380;28;835;-68
2022/07/25 03:08:13;;;;;;;;;;;;;;;22.73;64.08;99246.84;4993829;28;828;-69
2022/07/25 03:10:40;;;;;;;;;;;;;;;22.86;63.66;99257.69;4993410;28;918;-68
2022/07/25 03:13:07;;;;;;;;;;;;;;;22.88;63.05;99284.09;4992698;28;870;-70
2022/07/25 03:15:34;;;;;;;;;;;;;;;22.95;62.64;99278.00;4975591;28;1233;-69
2022/07/25 03:18:01;;;;;;;;;;;;;;;22.81;63.43;99295.84;4992910;28;815;-70
2022/07/25 03:20:27;;;;;;;;;;;;;;;22.59;64.37;99308.41;4992983;28;902;-71
2022/07/25 03:22:54;;;;;;;;;;;;;;;22.51;64.68;99303.72;4992865;28;1957;-72
2022/07/25 03:28:24;;;;;;;;;;;;;;;22.17;66.27;99359.66;4992886;28;664;-70
2022/07/25 03:30:50;;;;;;;;;;;;;;;22.00;66.93;99393.22;4992950;28;893;-73
2022/07/25 03:33:17;;;;;;;;;;;;;;;21.93;67.32;99422.53;4975208;28;937;-71
2022/07/25 03:35:44;;;;;;;;;;;;;;;22.07;67.33;99432.19;4993034;28;787;-70
2022/07/25 03:38:11;;;;;;;;;;;;;;;22.32;65.98;99429.97;4992698;28;828;-69
2022/07/25 03:40:37;;;;;;;;;;;;;;;22.54;64.91;99432.28;4992676;28;827;-70
2022/07/25 03:43:04;;;;;;;;;;;;;;;22.72;64.42;99448.88;4975155;28;1938;-72
2022/07/25 03:45:30;;;;;;;;;;;;;;;22.78;64.43;99446.13;4992480;28;823;-72
2022/07/25 03:47:57;;;;;;;;;;;;;;;22.84;63.80;99447.72;4992503;28;879;-69
2022/07/25 03:50:23;;;;;;;;;;;;;;;23.02;63.13;99445.88;4992579;28;820;-69
2022/07/25 03:52:50;;;;;;;;;;;;;;;23.17;62.29;99443.75;4992473;28;827;-70
2022/07/25 03:55:16;;;;;;;;;;;;;;;23.24;61.75;99451.75;4992412;28;894;-71
2022/07/25 03:57:43;;;;;;;;;;;;;;;23.27;61.47;99455.59;4992429;28;886;-70
2022/07/25 04:00:11;;;;;;;;;;;;;;;23.23;61.60;99469.91;4992364;28;1403;-69
2022/07/25 04:02:37;;;;;;;;;;;;;;;23.18;61.69;99484.75;4992251;28;1972;-71
2022/07/25 04:05:05;;;;;;;;;;;;;;;23.14;61.97;99509.56;4992311;28;819;-70
2022/07/25 04:07:31;;;;;;;;;;;;;;;23.10;62.47;99522.31;4992287;28;839;-70
2022/07/25 04:09:58;;;;;;;;;;;;;;;23.06;62.58;99530.22;4992221;28;870;-69
2022/07/25 04:12:23;;;;;;;;;;;;;;;23.06;62.82;99527.41;4992449;28;838;-70
2022/07/25 04:14:50;;;;;;;;;;;;;;;23.04;63.30;99527.88;4992184;28;890;-68
2022/07/25 04:17:19;;;;;;;;;;;;;;;22.93;64.90;99525.69;4992152;28;842;-68
2022/07/25 04:19:45;;;;;;;;;;;;;;;22.80;66.03;99539.38;4992183;28;863;-68
2022/07/25 04:22:11;;;;;;;;;;;;;;;22.67;67.13;99538.94;4992068;28;866;-71
2022/07/25 04:24:38;;;;;;;;;;;;;;;22.60;67.63;99535.28;4993399;28;1879;-70
2022/07/25 04:27:05;;;;;;;;;;;;;;;22.63;67.84;99539.16;4996204;28;909;-70
2022/07/25 04:29:31;;;;;;;;;;;;;;;22.75;67.87;99546.50;4996132;28;898;-71
2022/07/25 04:31:57;;;;;;;;;;;;;;;22.92;67.55;99535.41;4996038;28;1020;-69
2022/07/25 04:34:25;;;;;;;;;;;;;;;22.92;67.78;99546.69;4996146;28;791;-69
2022/07/25 04:36:51;;;;;;;;;;;;;;;22.96;68.04;99544.44;4995998;28;827;-68
2022/07/25 04:39:18;;;;;;;;;;;;;;;22.93;68.14;99539.78;4978464;28;1181;-69
2022/07/25 04:41:45;;;;;;;;;;;;;;;23.00;67.85;99535.75;4995886;28;874;-69
2022/07/25 04:44:12;;;;;;;;;;;;;;;23.20;67.50;99530.13;4995870;28;1955;-70
2022/07/25 04:46:39;;;;;;;;;;;;;;;23.53;66.90;99533.75;4995714;28;780;-71
2022/07/25 04:49:05;;;;;;;;;;;;;;;23.77;66.39;99542.72;4995863;28;871;-71
2022/07/25 04:51:32;;;;;;;;;;;;;;;23.90;66.08;99542.31;4995762;28;819;-69
2022/07/25 04:53:58;;;;;;;;;;;;;;;24.14;65.44;99541.97;4995792;28;917;-71
2022/07/25 04:56:24;;;;;;;;;;;;;;;24.24;64.92;99542.56;4995908;28;811;-69
2022/07/25 04:58:51;;;;;;;;;;;;;;;24.21;64.76;99555.63;4995930;28;870;-70
2022/07/25 05:01:18;;;;;;;;;;;;;;;24.30;64.23;99554.66;4995551;28;1256;-70
2022/07/25 05:03:45;;;;;;;;;;;;;;;24.39;64.11;99551.63;4995986;28;1910;-69
2022/07/25 05:06:11;;;;;;;;;;;;;;;24.50;64.04;99550.97;4996149;28;808;-69
2022/07/25 05:08:38;;;;;;;;;;;;;;;24.56;63.65;99554.59;4996195;28;827;-69
2022/07/25 05:11:05;;;;;;;;;;;;;;;24.43;64.28;99554.22;4995707;28;830;-70
2022/07/25 05:13:32;;;;;;;;;;;;;;;24.20;64.45;99544.84;4996218;28;743;-71
2022/07/25 05:15:59;;;;;;;;;;;;;;;24.11;64.87;99556.31;4995741;28;850;-68
2022/07/25 05:18:25;;;;;;;;;;;;;;;24.14;64.57;99567.38;4995861;28;776;-69
2022/07/25 05:20:52;;;;;;;;;;;;;;;24.34;64.89;99558.00;4995225;28;889;-68
2022/07/25 05:23:17;;;;;;;;;;;;;;;24.61;64.04;99548.19;4995073;28;1912;-72
2022/07/25 05:25:44;;;;;;;;;;;;;;;24.89;63.77;99550.34;4995109;28;843;-70
2022/07/25 05:28:13;;;;;;;;;;;;;;;25.33;63.36;99551.00;4995085;28;831;-71
2022/07/25 05:30:40;;;;;;;;;;;;;;;25.55;62.62;99555.94;4995059;28;815;-71
2022/07/25 05:33:07;;;;;;;;;;;;;;;25.89;61.44;99553.16;4995158;28;906;-70
2022/07/25 05:35:34;;;;;;;;;;;;;;;26.10;60.77;99548.00;4995028;28;804;-69
2022/07/25 05:38:00;;;;;;;;;;;;;;;26.59;59.14;99551.28;4994891;28;850;-69
2022/07/25 05:40:27;;;;;;;;;;;;;;;26.89;57.56;99548.59;4994870;28;890;-69
2022/07/25 05:42:53;;;;;;;;;;;;;;;27.38;56.50;99557.38;4994691;28;1907;-71
2022/07/25 05:45:19;;;;;;;;;;;;;;;27.57;54.49;99563.19;4994750;28;815;-71
2022/07/25 05:47:46;;;;;;;;;;;;;;;27.76;53.37;99565.34;4994728;28;831;-71
2022/07/25 05:50:13;;;;;;;;;;;;;;;28.02;53.23;99579.13;4994713;28;866;-71
2022/07/25 05:52:39;;;;;;;;;;;;;;;28.06;52.78;99582.44;4994635;28;875;-70
2022/07/25 05:55:05;;;;;;;;;;;;;;;28.12;52.29;99579.53;4994715;28;796;-70
2022/07/25 05:57:33;;;;;;;;;;;;;;;28.58;51.35;99578.56;4994570;28;853;-69
2022/07/25 06:00:00;;;;;;;;;;;;;;;28.69;50.42;99574.84;4994313;28;1316;-69
2022/07/25 06:02:27;;;;;;;;;;;;;;;28.31;51.13;99580.38;4994433;28;1972;-69
2022/07/25 06:04:54;;;;;;;;;;;;;;;28.37;50.81;99583.16;4994402;28;851;-69
2022/07/25 06:07:21;;;;;;;;;;;;;;;28.65;50.15;99580.06;4994564;28;851;-68
2022/07/25 06:09:48;;;;;;;;;;;;;;;28.67;50.04;99577.44;4994487;28;918;-68
2022/07/25 06:12:14;;;;;;;;;;;;;;;29.27;49.30;99571.53;4994532;28;870;-69
2022/07/25 06:14:41;;;;;;;;;;;;;;;30.70;46.50;99560.88;4976740;28;1145;-70
2022/07/25 06:17:08;;;;;;;;;;;;;;;31.26;43.79;99567.50;4994263;28;806;-68
2022/07/25 06:19:34;;;;;;;;;;;;;;;31.04;43.96;99562.28;4994066;28;890;-68
2022/07/25 06:22:01;;;;;;;;;;;;;;;30.52;45.06;99564.59;4994072;28;835;-68
2022/07/25 06:24:28;;;;;;;;;;;;;;;29.37;46.58;99563.38;4994031;28;1953;-68
2022/07/25 06:26:54;;;;;;;;;;;;;;;28.43;49.15;99564.00;4993961;28;863;-68
2022/07/25 06:29:21;;;;;;;;;;;;;;;28.62;49.10;99558.38;4994006;28;788;-68
2022/07/25 06:31:47;;;;;;;;;;;;;;;29.35;47.98;99554.59;4993857;28;807;-66
2022/07/25 06:34:14;;;;;;;;;;;;;;;29.59;47.08;99556.56;4994263;28;927;-70
2022/07/25 06:36:40;;;;;;;;;;;;;;;30.37;45.68;99555.84;4976310;28;1324;-69
2022/07/25 06:39:07;;;;;;;;;;;;;;;31.36;44.00;99547.03;4993792;28;812;-69
2022/07/25 06:41:35;;;;;;;;;;;;;;;31.66;42.76;99546.59;4993721;28;800;-68
2022/07/25 06:44:02;;;;;;;;;;;;;;;31.20;43.16;99551.81;4993539;28;1914;-68
2022/07/25 06:46:31;;;;;;;;;;;;;;;31.12;43.44;99546.78;4993373;28;867;-68
2022/07/25 06:48:58;;;;;;;;;;;;;;;31.03;44.02;99557.91;4993265;28;811;-69
2022/07/25 06:51:25;;;;;;;;;;;;;;;31.13;44.31;99554.03;4993519;28;885;-69
2022/07/25 06:53:52;;;;;;;;;;;;;;;32.09;42.73;99553.84;4993791;28;894;-67
2022/07/25 06:56:19;;;;;;;;;;;;;;;32.63;40.78;99546.44;4976026;28;1281;-68
2022/07/25 06:58:46;;;;;;;;;;;;;;;32.82;41.47;99551.88;4993364;28;808;-68
2022/07/25 07:01:13;;;;;;;;;;;;;;;32.52;41.07;99555.31;4975689;28;1514;-69
2022/07/25 07:03:40;;;;;;;;;;;;;;;32.92;40.07;99546.38;4993265;28;1914;-69
2022/07/25 07:06:08;;;;;;;;;;;;;;;32.54;40.71;99539.16;4993311;28;799;-68
2022/07/25 07:08:34;;;;;;;;;;;;;;;32.34;41.16;99543.56;4976051;28;1269;-67
2022/07/25 07:11:01;;;;;;;;;;;;;;;31.27;43.38;99545.44;4993258;28;913;-68
2022/07/25 07:13:28;;;;;;;;;;;;;;;32.10;42.56;99547.59;4993032;28;826;-68
2022/07/25 07:15:54;;;;;;;;;;;;;;;32.66;40.89;99553.13;4993172;28;795;-67
2022/07/25 07:18:21;;;;;;;;;;;;;;;32.66;40.46;99553.13;4993099;28;823;-68
2022/07/25 07:20:48;;;;;;;;;;;;;;;33.14;40.21;99545.75;4992960;28;970;-69
2022/07/25 07:23:14;;;;;;;;;;;;;;;32.77;40.61;99552.03;4992902;28;1882;-68
2022/07/25 07:25:41;;;;;;;;;;;;;;;31.13;42.96;99554.03;4992964;28;866;-68
2022/07/25 07:28:14;;;;;;;;;;;;;;;31.29;43.13;99560.66;4992899;28;819;-67
2022/07/25 07:30:42;;;;;;;;;;;;;;;32.04;42.09;99552.69;4992839;28;850;-68
2022/07/25 07:33:09;;;;;;;;;;;;;;;32.26;41.78;99557.06;4993046;28;913;-70
2022/07/25 07:35:36;;;;;;;;;;;;;;;32.72;41.10;99560.22;4992702;28;847;-68
2022/07/25 07:38:02;;;;;;;;;;;;;;;33.21;40.64;99554.94;4992772;28;803;-69
2022/07/25 07:40:29;;;;;;;;;;;;;;;34.16;39.23;99560.44;4992824;28;893;-69
2022/07/25 07:43:02;;;;;;;;;;;;;;;35.02;37.55;99553.19;4992465;28;1886;-68
2022/07/25 07:45:29;;;;;;;;;;;;;;;35.00;37.18;99550.13;4975160;28;1305;-68
2022/07/25 07:47:57;;;;;;;;;;;;;;;34.37;38.14;99550.84;4992571;28;1025;-68
2022/07/25 07:59:34;;;;;;;;;;;;;;;34.31;37.85;99559.66;4992724;28;676;-68
2022/07/25 08:02:03;;;;;;;;;;;;;;;34.21;37.82;99555.84;4992209;28;1334;-68
2022/07/25 08:04:32;;;;;;;;;;;;;;;34.79;37.06;99564.75;4992250;28;1973;-67
2022/07/25 08:07:11;;;;;;;;;;;;;;;34.83;36.79;99562.25;4974759;28;1387;-68
2022/07/25 08:09:53;;;;;;;;;;;;;;;34.76;37.26;99558.06;4992314;28;846;-69
2022/07/25 08:12:27;;;;;;;;;;;;;;;34.69;37.08;99553.09;4974574;28;1383;-69
2022/07/25 08:14:56;;;;;;;;;;;;;;;34.81;37.16;99544.09;4974485;28;1300;-69
2022/07/25 08:17:29;;;;;;;;;;;;;;;35.12;36.77;99548.34;4974711;28;1388;-68
2022/07/25 08:29:06;;;;;;;;;;;;;;;33.88;38.11;99563.47;4992439;28;622;-70
2022/07/25 08:31:41;;;;;;;;;;;;;;;34.24;37.73;99559.66;4974619;28;1285;-68
2022/07/25 08:34:21;;;;;;;;;;;;;;;33.76;38.43;99563.84;4992402;28;1010;-69
2022/07/25 08:36:47;;;;;;;;;;;;;;;33.13;40.17;99554.88;4991975;28;859;-69
2022/07/25 08:39:14;;;;;;;;;;;;;;;33.76;38.96;99546.66;4992063;28;890;-68
2022/07/25 08:41:41;;;;;;;;;;;;;;;34.11;38.62;99546.28;4991857;28;914;-69
2022/07/25 08:44:08;;;;;;;;;;;;;;;33.91;38.79;99548.00;4991871;28;1894;-68
2022/07/25 08:46:46;;;;;;;;;;;;;;;32.24;41.35;99554.00;4991924;28;820;-67
2022/07/25 08:49:13;;;;;;;;;;;;;;;30.89;44.89;99546.50;4992116;28;812;-67
2022/07/25 08:51:40;;;;;;;;;;;;;;;30.70;45.35;99542.97;4991962;28;832;-67
2022/07/25 08:54:06;;;;;;;;;;;;;;;31.47;43.12;99541.88;4991871;28;862;-69
2022/07/25 08:56:37;;;;;;;;;;;;;;;31.30;43.76;99532.88;4991953;28;863;-68
2022/07/25 08:59:04;;;;;;;;;;;;;;;30.60;45.08;99536.97;4992010;28;800;-66
2022/07/25 09:01:31;;;;;;;;;;;;;;;31.47;43.85;99536.16;4991483;28;1258;-68
2022/07/25 09:03:57;;;;;;;;;;;;;;;32.83;42.00;99544.06;4992029;28;1926;-67
2022/07/25 09:06:24;;;;;;;;;;;;;;;33.34;40.08;99543.31;4991768;28;870;-68
2022/07/25 09:08:55;;;;;;;;;;;;;;;33.82;39.66;99546.47;4991718;28;819;-69
2022/07/25 09:11:28;;;;;;;;;;;;;;;34.36;38.46;99541.47;4993961;28;866;-68
2022/07/25 09:13:59;;;;;;;;;;;;;;;34.22;37.89;99545.91;4995555;28;807;-68
2022/07/25 09:16:31;;;;;;;;;;;;;;;33.59;39.50;99551.41;4995259;28;863;-67
2022/07/25 09:19:11;;;;;;;;;;;;;;;32.89;40.58;99550.38;4977753;28;1304;-69
2022/07/25 09:21:38;;;;;;;;;;;;;;;33.25;39.63;99553.22;4995245;28;887;-68
2022/07/25 09:24:08;;;;;;;;;;;;;;;32.36;41.35;99545.88;4995115;28;1918;-68
2022/07/25 09:26:49;;;;;;;;;;;;;;;32.16;41.69;99544.59;4995339;28;815;-68
2022/07/25 09:29:17;;;;;;;;;;;;;;;32.41;41.57;99549.91;4995075;28;843;-69
2022/07/25 09:31:47;;;;;;;;;;;;;;;33.04;40.43;99552.53;4995135;28;815;-68
2022/07/25 09:34:16;;;;;;;;;;;;;;;33.80;39.36;99551.22;4995384;28;942;-68
2022/07/25 09:36:53;;;;;;;;;;;;;;;33.05;40.16;99552.00;4977473;28;1174;-69
2022/07/25 09:39:31;;;;;;;;;;;;;;;32.27;41.57;99555.72;4995189;28;807;-69
2022/07/25 09:41:57;;;;;;;;;;;;;;;32.94;41.06;99553.06;4994909;28;812;-69
2022/07/25 09:44:29;;;;;;;;;;;;;;;33.44;39.89;99544.28;4994688;28;1914;-68
2022/07/25 09:46:56;;;;;;;;;;;;;;;33.23;39.53;99546.53;4994897;28;811;-70
2022/07/25 09:49:22;;;;;;;;;;;;;;;32.99;39.51;99559.97;4995075;28;834;-69
2022/07/25 09:51:53;;;;;;;;;;;;;;;32.57;40.44;99550.81;4995091;28;831;-68
2022/07/25 09:54:21;;;;;;;;;;;;;;;32.94;40.24;99555.94;4994723;28;862;-68
2022/07/25 09:56:47;;;;;;;;;;;;;;;33.53;39.44;99552.31;4994632;28;820;-70
2022/07/25 09:59:13;;;;;;;;;;;;;;;32.77;40.32;99555.66;4994579;28;873;-69
2022/07/25 10:01:47;;;;;;;;;;;;;;;32.10;42.01;99547.59;4994359;28;1581;-69
2022/07/25 10:32:49;;;;;;;;;;;;;;;32.41;40.30;99524.94;5738487;23;1677;-65
2022/07/25 10:35:33;;;;;;;;;;;;;;;32.32;40.73;99531.16;4993901;28;854;-62
2022/07/25 10:38:02;;;;;;;;;;;;;;;32.98;39.88;99534.78;4993844;28;783;-63
2022/07/25 10:40:35;;;;;;;;;;;;;;;32.76;40.62;99525.53;4993800;28;574;-63
2022/07/25 10:55:38;;;;;;;;;;;;;;;33.19;39.24;99520.38;4994356;28;756;-63
2022/07/25 10:58:05;;;;;;;;;;;;;;;33.53;39.11;99517.19;4993903;28;839;-64
2022/07/25 11:03:34;;;;;;;;;;;;;;;33.76;38.05;99514.38;4993235;28;1967;-63
2022/07/25 11:06:01;;;;;;;;;;;;;;;33.54;38.31;99513.75;4993283;28;867;-64
2022/07/25 11:08:34;;;;;;;;;;;;;;;33.15;39.12;99510.03;4993224;28;819;-63
2022/07/25 11:11:22;;;;;;;;;;;;;;;33.13;38.75;99503.34;4993526;28;815;-63
2022/07/25 11:14:00;;;;;;;;;;;;;;;34.05;38.23;99488.34;4975412;28;1215;-63
2022/07/25 11:16:27;;;;;;;;;;;;;;;34.23;37.44;99495.81;4993090;28;803;-63
2022/07/25 11:18:54;;;;;;;;;;;;;;;34.36;36.84;99492.72;4993076;28;886;-64
2022/07/25 11:21:21;;;;;;;;;;;;;;;33.73;37.99;99492.59;4975472;28;1364;-64
2022/07/25 11:23:51;;;;;;;;;;;;;;;33.09;38.69;99498.00;4992973;28;1929;-63
2022/07/25 11:26:19;;;;;;;;;;;;;;;32.71;38.94;99501.47;4975377;28;1209;-64
2022/07/25 11:28:50;;;;;;;;;;;;;;;33.04;38.71;99501.78;4993203;28;788;-63
2022/07/25 11:31:17;;;;;;;;;;;;;;;32.91;38.69;99496.97;4992709;28;812;-64
2022/07/25 11:33:46;;;;;;;;;;;;;;;33.40;38.29;99483.75;4992457;28;1396;-64
2022/07/25 11:36:14;;;;;;;;;;;;;;;34.05;36.90;99494.84;4992731;28;823;-64
2022/07/25 11:38:42;;;;;;;;;;;;;;;34.29;36.33;99479.19;4993295;28;835;-64
2022/07/25 11:41:09;;;;;;;;;;;;;;;34.58;35.35;99493.97;4992947;28;926;-64
2022/07/25 11:43:35;;;;;;;;;;;;;;;34.90;35.04;99491.78;4975276;28;1961;-63
2022/07/25 11:46:08;;;;;;;;;;;;;;;35.05;34.47;99485.97;4993417;28;791;-64
2022/07/25 11:48:57;;;;;;;;;;;;;;;35.48;33.92;99486.84;4992535;28;897;-64
2022/07/25 11:51:35;;;;;;;;;;;;;;;36.01;33.32;99487.78;4975090;28;1237;-64
2022/07/25 11:54:24;;;;;;;;;;;;;;;36.18;32.66;99487.06;4992437;28;1091;-63
2022/07/25 11:57:09;;;;;;;;;;;;;;;36.47;32.57;99486.59;4991168;28;1378;-64
2022/07/25 11:59:42;;;;;;;;;;;;;;;37.33;31.80;99479.16;4992405;28;864;-64
2022/07/25 12:02:09;;;;;;;;;;;;;;;37.35;30.85;99476.44;4975034;28;1328;-64
2022/07/25 12:04:36;;;;;;;;;;;;;;;37.19;31.37;99476.66;4992726;28;1875;-64
2022/07/25 12:07:07;;;;;;;;;;;;;;;37.03;31.29;99474.56;4992480;28;799;-63
2022/07/25 12:09:34;;;;;;;;;;;;;;;36.68;31.24;99481.16;4992274;28;839;-63
2022/07/25 12:12:05;;;;;;;;;;;;;;;36.81;31.45;99468.53;4992239;28;842;-64
2022/07/25 12:14:42;;;;;;;;;;;;;;;36.91;31.81;99465.69;4992173;28;843;-65
2022/07/25 12:17:09;;;;;;;;;;;;;;;36.64;31.08;99474.28;4974751;28;1312;-63
2022/07/25 12:19:40;;;;;;;;;;;;;;;36.47;31.32;99475.81;4992105;28;862;-64
2022/07/25 12:22:06;;;;;;;;;;;;;;;36.56;31.29;99474.38;4974898;28;1627;-64
2022/07/25 12:24:33;;;;;;;;;;;;;;;36.74;30.88;99463.63;4992317;28;1878;-64
2022/07/25 12:27:00;;;;;;;;;;;;;;;36.92;30.96;99453.59;4992457;28;830;-64
2022/07/25 12:29:35;;;;;;;;;;;;;;;37.29;30.74;99455.78;4992572;28;880;-64
2022/07/25 12:32:01;;;;;;;;;;;;;;;37.78;29.82;99454.59;4992016;28;1117;-64
2022/07/25 12:34:33;;;;;;;;;;;;;;;36.32;31.42;99459.50;4991828;28;1405;-63
2022/07/25 12:37:00;;;;;;;;;;;;;;;35.70;32.40;99459.34;4992131;28;858;-64
2022/07/25 12:39:25;;;;;;;;;;;;;;;36.28;31.98;99447.66;4991969;28;841;-64
2022/07/25 12:41:57;;;;;;;;;;;;;;;36.47;31.72;99434.78;4992288;28;815;-65
2022/07/25 12:44:24;;;;;;;;;;;;;;;35.27;32.96;99443.34;4992181;28;1977;-64
2022/07/25 12:46:51;;;;;;;;;;;;;;;33.91;35.00;99441.94;4995479;28;867;-65
2022/07/25 12:49:17;;;;;;;;;;;;;;;33.15;36.52;99443.44;4995840;28;834;-64
2022/07/25 12:51:44;;;;;;;;;;;;;;;33.03;36.59;99445.09;4995826;28;819;-63
2022/07/25 12:57:27;;;;;;;;;;;;;;;37.01;31.65;99434.84;4992297;28;1535;-64
2022/07/25 13:03:03;;;;;;;;;;;;;;;38.78;28.81;99423.81;4995822;28;1969;-64
2022/07/25 13:08:53;;;;;;;;;;;;;;;35.70;32.59;99429.81;4995574;28;744;-64
2022/07/25 13:11:19;;;;;;;;;;;;;;;33.92;35.22;99421.28;4995516;28;842;-64
2022/07/25 13:13:45;;;;;;;;;;;;;;;33.11;36.53;99426.63;4995409;28;791;-64
2022/07/25 13:16:12;;;;;;;;;;;;;;;33.21;36.68;99420.34;4995488;28;843;-63
2022/07/25 13:18:39;;;;;;;;;;;;;;;34.55;35.20;99414.06;4995285;28;831;-64
2022/07/25 13:21:07;;;;;;;;;;;;;;;34.63;35.28;99411.97;4995314;28;870;-63
2022/07/25 13:23:34;;;;;;;;;;;;;;;33.32;36.60;99408.53;4995140;28;1977;-64
2022/07/25 13:26:01;;;;;;;;;;;;;;;32.12;38.49;99413.44;4995196;28;874;-64
2022/07/25 13:28:28;;;;;;;;;;;;;;;31.93;39.65;99410.06;4977670;28;1237;-64
2022/07/25 13:31:00;;;;;;;;;;;;;;;31.99;39.63;99422.16;4995024;28;818;-64
2022/07/25 13:33:27;;;;;;;;;;;;;;;31.58;40.36;99408.69;4994978;28;1351;-64
2022/07/25 13:35:54;;;;;;;;;;;;;;;31.31;41.23;99411.69;4995004;28;780;-65
2022/07/25 13:38:20;;;;;;;;;;;;;;;31.01;42.25;99407.22;4994979;28;819;-64
2022/07/25 13:40:47;;;;;;;;;;;;;;;30.95;42.49;99406.56;4994901;28;886;-64
2022/07/25 13:43:13;;;;;;;;;;;;;;;31.78;40.82;99410.75;4994762;28;1913;-64
2022/07/25 13:45:41;;;;;;;;;;;;;;;33.89;37.93;99395.91;4994976;28;866;-64
2022/07/25 13:48:09;;;;;;;;;;;;;;;35.49;35.18;99384.97;4994753;28;818;-65
2022/07/25 13:50:35;;;;;;;;;;;;;;;36.21;33.76;99388.09;4994733;28;811;-65
2022/07/25 13:53:04;;;;;;;;;;;;;;;36.64;32.53;99382.97;4994981;28;808;-65
2022/07/25 13:55:31;;;;;;;;;;;;;;;37.53;31.65;99388.50;4994681;28;882;-65
2022/07/25 13:57:58;;;;;;;;;;;;;;;37.52;30.98;99383.34;4994453;28;917;-64
2022/07/25 14:00:24;;;;;;;;;;;;;;;37.64;31.22;99381.44;4994409;28;843;-65
2022/07/25 14:02:51;;;;;;;;;;;;;;;38.18;30.17;99381.19;4994478;28;1957;-65
2022/07/25 14:05:17;;;;;;;;;;;;;;;37.37;30.89;99373.59;4994493;28;803;-65
2022/07/25 14:07:44;;;;;;;;;;;;;;;36.89;31.86;99373.41;4994467;28;800;-65
2022/07/25 14:10:11;;;;;;;;;;;;;;;36.05;32.78;99380.97;4994333;28;906;-64
2022/07/25 14:24:48;;;;;;;;;;;;;;;37.85;30.58;99368.56;4994456;28;1894;-64
2022/07/25 14:27:17;;;;;;;;;;;;;;;37.76;30.52;99362.16;4994071;28;1104;-64
2022/07/25 14:29:44;;;;;;;;;;;;;;;37.21;31.18;99372.34;4993958;28;798;-64
2022/07/25 14:32:10;;;;;;;;;;;;;;;37.17;30.90;99369.91;4993984;28;919;-65
2022/07/25 14:34:39;;;;;;;;;;;;;;;36.37;32.10;99354.16;4993733;28;1508;-64
2022/07/25 14:37:05;;;;;;;;;;;;;;;34.97;33.44;99362.56;4993914;28;862;-64
2022/07/25 14:39:32;;;;;;;;;;;;;;;34.10;34.51;99350.56;4993838;28;815;-65
2022/07/25 14:41:59;;;;;;;;;;;;;;;33.96;35.47;99347.16;4993783;28;909;-65
2022/07/25 14:44:27;;;;;;;;;;;;;;;33.77;36.35;99341.09;4993977;28;1913;-65
2022/07/25 14:46:57;;;;;;;;;;;;;;;33.40;36.79;99343.41;4993620;28;878;-64
2022/07/25 14:49:39;;;;;;;;;;;;;;;32.88;38.10;99340.72;4993687;28;831;-64
2022/07/25 14:52:06;;;;;;;;;;;;;;;32.35;38.78;99344.94;4993552;28;851;-65
2022/07/25 14:57:37;;;;;;;;;;;;;;;31.71;39.82;99348.63;4993836;28;680;-64
2022/07/25 15:00:11;;;;;;;;;;;;;;;31.19;41.69;99351.25;4993558;28;827;-64
2022/07/25 15:02:38;;;;;;;;;;;;;;;30.66;44.28;99340.84;4993680;28;791;-64
2022/07/25 15:05:05;;;;;;;;;;;;;;;30.23;45.83;99347.72;4993340;28;867;-64
2022/07/25 15:07:36;;;;;;;;;;;;;;;29.95;46.62;99344.72;4993151;28;865;-64
2022/07/25 15:10:03;;;;;;;;;;;;;;;29.76;47.35;99341.97;4993017;28;827;-63
2022/07/25 15:12:30;;;;;;;;;;;;;;;29.58;48.14;99349.28;4993207;28;791;-64
2022/07/25 15:14:56;;;;;;;;;;;;;;;29.60;48.53;99349.50;4975725;28;1293;-64
2022/07/25 15:17:23;;;;;;;;;;;;;;;29.56;48.80;99352.66;4993052;28;877;-63
2022/07/25 15:32:21;;;;;;;;;;;;;;;28.91;52.22;99363.31;4932930;29;942;-64
2022/07/25 15:34:47;;;;;;;;;;;;;;;28.89;51.92;99352.50;4932723;29;1465;-64
2022/07/25 15:37:14;;;;;;;;;;;;;;;28.81;52.34;99365.06;4932883;29;1064;-64
2022/07/25 15:39:41;;;;;;;;;;;;;;;28.70;52.85;99363.16;4932815;29;902;-64
2022/07/25 15:42:06;;;;;;;;;;;;;;;28.63;53.59;99366.59;4932835;29;843;-63
2022/07/25 15:44:35;;;;;;;;;;;;;;;28.78;53.71;99366.13;4932649;29;1902;-64
2022/07/25 15:47:02;;;;;;;;;;;;;;;29.17;52.98;99359.84;4932786;29;803;-64
2022/07/25 15:49:29;;;;;;;;;;;;;;;29.49;52.35;99371.16;4932781;29;906;-64
2022/07/25 15:51:55;;;;;;;;;;;;;;;29.63;51.80;99385.41;4932645;29;914;-63
2022/07/25 15:54:22;;;;;;;;;;;;;;;29.83;51.74;99384.03;4932636;29;899;-64
2022/07/25 15:56:57;;;;;;;;;;;;;;;29.88;51.63;99381.06;4932752;29;909;-63